sensor_id;sensor_type;location;lat;lon;timestamp;P1;durP1;ratioP1;P2;durP2;ratioP2
13321;SDS011;6730;46.248;6.930;2023-03-31T00:00:38;3.25;;;2.15;;
13321;SDS011;6730;46.248;6.930;2023-03-31T00:03:03;2.70;;;2.45;;
13321;SDS011;6730;46.248;6.930;2023-03-31T00:05:35;4.13;;;1.92;;
13321;SDS011;6730;46.248;6.930;2023-03-31T00:08:01;5.65;;;2.05;;
13321;SDS011;6730;46.248;6.930;2023-03-31T00:10:28;2.83;;;1.92;;
13321;SDS011;6730;46.248;6.930;2023-03-31T00:12:59;3.50;;;2.15;;
13321;SDS011;6730;46.248;6.930;2023-03-31T00:15:26;4.13;;;2.40;;
13321;SDS011;6730;46.248;6.930;2023-03-31T00:17:52;5.30;;;2.50;;
13321;SDS011;6730;46.248;6.930;2023-03-31T00:20:18;3.63;;;2.38;;
13321;SDS011;6730;46.248;6.930;2023-03-31T00:22:44;2.25;;;1.90;;
13321;SDS011;6730;46.248;6.930;2023-03-31T00:25:11;4.05;;;2.30;;
13321;SDS011;6730;46.248;6.930;2023-03-31T00:27:40;4.10;;;2.10;;
13321;SDS011;6730;46.248;6.930;2023-03-31T00:30:08;2.58;;;2.15;;
13321;SDS011;6730;46.248;6.930;2023-03-31T00:32:34;4.80;;;2.05;;
13321;SDS011;6730;46.248;6.930;2023-03-31T00:34:59;3.58;;;1.98;;
13321;SDS011;6730;46.248;6.930;2023-03-31T00:37:26;4.40;;;2.10;;
13321;SDS011;6730;46.248;6.930;2023-03-31T00:39:53;3.85;;;2.13;;
13321;SDS011;6730;46.248;6.930;2023-03-31T00:42:19;3.22;;;2.22;;
13321;SDS011;6730;46.248;6.930;2023-03-31T00:47:52;5.25;;;1.98;;
13321;SDS011;6730;46.248;6.930;2023-03-31T00:50:28;3.65;;;2.50;;
13321;SDS011;6730;46.248;6.930;2023-03-31T00:53:10;3.20;;;2.03;;
13321;SDS011;6730;46.248;6.930;2023-03-31T00:55:42;3.88;;;2.45;;
13321;SDS011;6730;46.248;6.930;2023-03-31T00:58:13;5.13;;;2.40;;
13321;SDS011;6730;46.248;6.930;2023-03-31T01:00:44;2.50;;;2.10;;
13321;SDS011;6730;46.248;6.930;2023-03-31T01:03:16;3.55;;;2.42;;
13321;SDS011;6730;46.248;6.930;2023-03-31T01:05:53;5.60;;;2.88;;
13321;SDS011;6730;46.248;6.930;2023-03-31T01:08:23;7.53;;;2.55;;
13321;SDS011;6730;46.248;6.930;2023-03-31T01:10:52;3.88;;;2.40;;
13321;SDS011;6730;46.248;6.930;2023-03-31T01:13:21;5.53;;;2.63;;
13321;SDS011;6730;46.248;6.930;2023-03-31T01:15:48;3.10;;;2.38;;
13321;SDS011;6730;46.248;6.930;2023-03-31T01:18:14;8.45;;;2.17;;
13321;SDS011;6730;46.248;6.930;2023-03-31T01:35:04;3.47;;;2.45;;
13321;SDS011;6730;46.248;6.930;2023-03-31T01:42:40;3.53;;;2.28;;
13321;SDS011;6730;46.248;6.930;2023-03-31T01:45:17;4.25;;;2.28;;
13321;SDS011;6730;46.248;6.930;2023-03-31T01:48:13;4.07;;;2.60;;
13321;SDS011;6730;46.248;6.930;2023-03-31T01:50:54;4.00;;;2.03;;
13321;SDS011;6730;46.248;6.930;2023-03-31T01:53:40;2.95;;;2.25;;
13321;SDS011;6730;46.248;6.930;2023-03-31T01:59:07;5.38;;;2.30;;
13321;SDS011;6730;46.248;6.930;2023-03-31T02:01:51;4.88;;;2.50;;
13321;SDS011;6730;46.248;6.930;2023-03-31T02:04:29;2.65;;;2.28;;
13321;SDS011;6730;46.248;6.930;2023-03-31T02:07:04;5.55;;;2.95;;
13321;SDS011;6730;46.248;6.930;2023-03-31T02:09:45;6.68;;;2.60;;
13321;SDS011;6730;46.248;6.930;2023-03-31T02:12:15;5.10;;;2.50;;
13321;SDS011;6730;46.248;6.930;2023-03-31T02:14:44;6.07;;;2.53;;
13321;SDS011;6730;46.248;6.930;2023-03-31T02:17:14;4.53;;;2.97;;
13321;SDS011;6730;46.248;6.930;2023-03-31T02:19:43;4.78;;;2.33;;
13321;SDS011;6730;46.248;6.930;2023-03-31T02:22:11;3.22;;;2.42;;
13321;SDS011;6730;46.248;6.930;2023-03-31T02:24:38;5.45;;;3.00;;
13321;SDS011;6730;46.248;6.930;2023-03-31T02:27:07;3.58;;;2.45;;
13321;SDS011;6730;46.248;6.930;2023-03-31T02:29:40;3.63;;;2.45;;
13321;SDS011;6730;46.248;6.930;2023-03-31T02:32:10;2.58;;;2.10;;
13321;SDS011;6730;46.248;6.930;2023-03-31T02:34:45;6.82;;;1.95;;
13321;SDS011;6730;46.248;6.930;2023-03-31T02:37:11;4.82;;;2.28;;
13321;SDS011;6730;46.248;6.930;2023-03-31T02:39:37;6.18;;;2.10;;
13321;SDS011;6730;46.248;6.930;2023-03-31T02:42:05;2.60;;;2.10;;
13321;SDS011;6730;46.248;6.930;2023-03-31T02:44:33;5.18;;;2.40;;
13321;SDS011;6730;46.248;6.930;2023-03-31T02:46:59;3.72;;;2.00;;
13321;SDS011;6730;46.248;6.930;2023-03-31T02:49:26;2.47;;;1.83;;
13321;SDS011;6730;46.248;6.930;2023-03-31T03:02:33;2.80;;;1.40;;
13321;SDS011;6730;46.248;6.930;2023-03-31T03:13:49;1.50;;;1.40;;
13321;SDS011;6730;46.248;6.930;2023-03-31T03:16:35;1.63;;;1.42;;
13321;SDS011;6730;46.248;6.930;2023-03-31T03:19:06;1.67;;;1.23;;
13321;SDS011;6730;46.248;6.930;2023-03-31T03:21:33;4.78;;;1.45;;
13321;SDS011;6730;46.248;6.930;2023-03-31T03:23:58;1.58;;;1.30;;
13321;SDS011;6730;46.248;6.930;2023-03-31T03:26:25;2.08;;;1.38;;
13321;SDS011;6730;46.248;6.930;2023-03-31T03:28:55;1.90;;;1.30;;
13321;SDS011;6730;46.248;6.930;2023-03-31T03:31:21;1.85;;;1.30;;
13321;SDS011;6730;46.248;6.930;2023-03-31T03:33:50;1.83;;;1.48;;
13321;SDS011;6730;46.248;6.930;2023-03-31T03:36:17;3.75;;;1.30;;
13321;SDS011;6730;46.248;6.930;2023-03-31T03:38:43;2.63;;;1.52;;
13321;SDS011;6730;46.248;6.930;2023-03-31T03:41:09;1.35;;;1.10;;
13321;SDS011;6730;46.248;6.930;2023-03-31T03:43:35;2.70;;;1.10;;
13321;SDS011;6730;46.248;6.930;2023-03-31T03:46:01;1.85;;;1.20;;
13321;SDS011;6730;46.248;6.930;2023-03-31T03:48:26;1.30;;;1.20;;
13321;SDS011;6730;46.248;6.930;2023-03-31T03:50:52;4.07;;;1.10;;
13321;SDS011;6730;46.248;6.930;2023-03-31T03:53:18;1.55;;;1.17;;
13321;SDS011;6730;46.248;6.930;2023-03-31T03:55:44;2.70;;;1.10;;
13321;SDS011;6730;46.248;6.930;2023-03-31T03:58:13;4.82;;;0.95;;
13321;SDS011;6730;46.248;6.930;2023-03-31T04:00:38;1.50;;;1.30;;
13321;SDS011;6730;46.248;6.930;2023-03-31T04:03:04;1.52;;;1.10;;
13321;SDS011;6730;46.248;6.930;2023-03-31T04:05:30;2.22;;;0.95;;
13321;SDS011;6730;46.248;6.930;2023-03-31T04:07:55;2.58;;;0.90;;
13321;SDS011;6730;46.248;6.930;2023-03-31T04:10:21;2.28;;;1.20;;
13321;SDS011;6730;46.248;6.930;2023-03-31T04:12:47;1.10;;;1.00;;
13321;SDS011;6730;46.248;6.930;2023-03-31T04:15:12;1.70;;;1.13;;
13321;SDS011;6730;46.248;6.930;2023-03-31T04:17:38;2.50;;;1.25;;
13321;SDS011;6730;46.248;6.930;2023-03-31T04:20:04;2.13;;;1.10;;
13321;SDS011;6730;46.248;6.930;2023-03-31T04:22:33;1.35;;;1.20;;
13321;SDS011;6730;46.248;6.930;2023-03-31T04:25:04;1.95;;;1.10;;
13321;SDS011;6730;46.248;6.930;2023-03-31T04:27:40;1.25;;;1.00;;
13321;SDS011;6730;46.248;6.930;2023-03-31T04:30:24;1.65;;;1.10;;
13321;SDS011;6730;46.248;6.930;2023-03-31T04:32:55;1.33;;;1.20;;
13321;SDS011;6730;46.248;6.930;2023-03-31T04:35:23;1.20;;;1.00;;
13321;SDS011;6730;46.248;6.930;2023-03-31T04:37:51;1.27;;;1.15;;
13321;SDS011;6730;46.248;6.930;2023-03-31T04:40:24;1.23;;;1.13;;
13321;SDS011;6730;46.248;6.930;2023-03-31T04:42:50;1.52;;;1.25;;
13321;SDS011;6730;46.248;6.930;2023-03-31T04:45:16;1.20;;;1.10;;
13321;SDS011;6730;46.248;6.930;2023-03-31T04:47:42;2.03;;;1.25;;
13321;SDS011;6730;46.248;6.930;2023-03-31T04:50:08;1.40;;;1.30;;
13321;SDS011;6730;46.248;6.930;2023-03-31T04:52:35;3.75;;;2.13;;
13321;SDS011;6730;46.248;6.930;2023-03-31T04:55:01;1.98;;;1.70;;
13321;SDS011;6730;46.248;6.930;2023-03-31T04:57:27;3.38;;;2.00;;
13321;SDS011;6730;46.248;6.930;2023-03-31T04:59:54;3.33;;;2.10;;
13321;SDS011;6730;46.248;6.930;2023-03-31T05:02:20;3.55;;;1.83;;
13321;SDS011;6730;46.248;6.930;2023-03-31T05:04:48;3.78;;;2.08;;
13321;SDS011;6730;46.248;6.930;2023-03-31T05:07:15;4.53;;;2.65;;
13321;SDS011;6730;46.248;6.930;2023-03-31T05:09:42;4.07;;;3.08;;
13321;SDS011;6730;46.248;6.930;2023-03-31T05:12:08;3.97;;;2.95;;
13321;SDS011;6730;46.248;6.930;2023-03-31T05:14:34;3.67;;;2.47;;
13321;SDS011;6730;46.248;6.930;2023-03-31T05:16:59;7.25;;;2.95;;
13321;SDS011;6730;46.248;6.930;2023-03-31T05:19:25;4.10;;;2.67;;
13321;SDS011;6730;46.248;6.930;2023-03-31T05:21:51;2.97;;;2.50;;
13321;SDS011;6730;46.248;6.930;2023-03-31T05:24:17;4.07;;;2.20;;
13321;SDS011;6730;46.248;6.930;2023-03-31T05:26:42;3.08;;;2.38;;
13321;SDS011;6730;46.248;6.930;2023-03-31T05:29:16;4.60;;;2.60;;
13321;SDS011;6730;46.248;6.930;2023-03-31T05:31:45;3.67;;;2.47;;
13321;SDS011;6730;46.248;6.930;2023-03-31T05:34:12;3.65;;;2.17;;
13321;SDS011;6730;46.248;6.930;2023-03-31T05:36:38;3.60;;;2.50;;
13321;SDS011;6730;46.248;6.930;2023-03-31T05:39:04;4.45;;;2.50;;
13321;SDS011;6730;46.248;6.930;2023-03-31T05:41:30;5.43;;;2.55;;
13321;SDS011;6730;46.248;6.930;2023-03-31T05:43:56;3.40;;;2.88;;
13321;SDS011;6730;46.248;6.930;2023-03-31T05:46:22;2.90;;;2.65;;
13321;SDS011;6730;46.248;6.930;2023-03-31T05:48:48;5.38;;;2.22;;
13321;SDS011;6730;46.248;6.930;2023-03-31T05:51:13;4.32;;;2.40;;
13321;SDS011;6730;46.248;6.930;2023-03-31T05:53:39;3.92;;;2.70;;
13321;SDS011;6730;46.248;6.930;2023-03-31T05:56:06;5.28;;;2.88;;
13321;SDS011;6730;46.248;6.930;2023-03-31T05:58:35;19.65;;;16.05;;
13321;SDS011;6730;46.248;6.930;2023-03-31T06:01:09;8.07;;;5.43;;
13321;SDS011;6730;46.248;6.930;2023-03-31T06:03:37;6.40;;;4.10;;
13321;SDS011;6730;46.248;6.930;2023-03-31T06:06:05;4.20;;;3.40;;
13321;SDS011;6730;46.248;6.930;2023-03-31T06:08:32;4.97;;;3.50;;
13321;SDS011;6730;46.248;6.930;2023-03-31T06:10:58;21.10;;;18.90;;
13321;SDS011;6730;46.248;6.930;2023-03-31T06:13:24;9.63;;;8.57;;
13321;SDS011;6730;46.248;6.930;2023-03-31T06:15:57;7.22;;;4.00;;
13321;SDS011;6730;46.248;6.930;2023-03-31T06:18:24;8.52;;;5.40;;
13321;SDS011;6730;46.248;6.930;2023-03-31T06:20:52;4.97;;;3.15;;
13321;SDS011;6730;46.248;6.930;2023-03-31T06:23:19;14.13;;;12.93;;
13321;SDS011;6730;46.248;6.930;2023-03-31T06:25:45;8.38;;;5.05;;
13321;SDS011;6730;46.248;6.930;2023-03-31T06:28:10;7.00;;;3.75;;
13321;SDS011;6730;46.248;6.930;2023-03-31T06:30:36;5.70;;;4.30;;
13321;SDS011;6730;46.248;6.930;2023-03-31T06:33:02;8.10;;;4.80;;
13321;SDS011;6730;46.248;6.930;2023-03-31T06:35:29;8.73;;;4.78;;
13321;SDS011;6730;46.248;6.930;2023-03-31T06:37:54;7.25;;;4.93;;
13321;SDS011;6730;46.248;6.930;2023-03-31T06:40:21;7.25;;;6.05;;
13321;SDS011;6730;46.248;6.930;2023-03-31T06:42:47;8.05;;;5.68;;
13321;SDS011;6730;46.248;6.930;2023-03-31T06:45:13;5.43;;;4.22;;
13321;SDS011;6730;46.248;6.930;2023-03-31T06:47:38;9.57;;;5.45;;
13321;SDS011;6730;46.248;6.930;2023-03-31T06:50:06;5.65;;;5.05;;
13321;SDS011;6730;46.248;6.930;2023-03-31T06:52:33;6.45;;;4.90;;
13321;SDS011;6730;46.248;6.930;2023-03-31T06:54:59;5.60;;;4.57;;
13321;SDS011;6730;46.248;6.930;2023-03-31T06:57:25;6.90;;;5.50;;
13321;SDS011;6730;46.248;6.930;2023-03-31T06:59:51;7.68;;;4.90;;
13321;SDS011;6730;46.248;6.930;2023-03-31T07:02:17;6.85;;;5.88;;
13321;SDS011;6730;46.248;6.930;2023-03-31T07:04:43;6.40;;;4.72;;
13321;SDS011;6730;46.248;6.930;2023-03-31T07:07:09;6.93;;;4.80;;
13321;SDS011;6730;46.248;6.930;2023-03-31T07:09:35;5.30;;;4.65;;
13321;SDS011;6730;46.248;6.930;2023-03-31T07:12:00;8.13;;;5.43;;
13321;SDS011;6730;46.248;6.930;2023-03-31T07:14:29;7.28;;;5.43;;
13321;SDS011;6730;46.248;6.930;2023-03-31T07:16:55;6.63;;;5.15;;
13321;SDS011;6730;46.248;6.930;2023-03-31T07:19:21;7.43;;;5.38;;
13321;SDS011;6730;46.248;6.930;2023-03-31T07:21:47;8.00;;;5.93;;
13321;SDS011;6730;46.248;6.930;2023-03-31T07:24:13;8.75;;;5.80;;
13321;SDS011;6730;46.248;6.930;2023-03-31T07:26:39;8.00;;;6.35;;
13321;SDS011;6730;46.248;6.930;2023-03-31T07:29:05;9.30;;;6.22;;
13321;SDS011;6730;46.248;6.930;2023-03-31T07:31:31;6.85;;;5.32;;
13321;SDS011;6730;46.248;6.930;2023-03-31T07:33:57;6.45;;;5.80;;
13321;SDS011;6730;46.248;6.930;2023-03-31T07:36:22;8.45;;;5.65;;
13321;SDS011;6730;46.248;6.930;2023-03-31T07:38:48;6.80;;;5.40;;
13321;SDS011;6730;46.248;6.930;2023-03-31T07:41:16;10.18;;;5.65;;
13321;SDS011;6730;46.248;6.930;2023-03-31T07:43:43;8.23;;;5.20;;
13321;SDS011;6730;46.248;6.930;2023-03-31T07:46:17;23.85;;;6.25;;
13321;SDS011;6730;46.248;6.930;2023-03-31T07:48:43;8.05;;;6.38;;
13321;SDS011;6730;46.248;6.930;2023-03-31T07:51:10;8.20;;;5.95;;
13321;SDS011;6730;46.248;6.930;2023-03-31T07:53:37;9.23;;;5.82;;
13321;SDS011;6730;46.248;6.930;2023-03-31T07:56:03;6.65;;;4.65;;
13321;SDS011;6730;46.248;6.930;2023-03-31T07:58:29;4.15;;;3.63;;
13321;SDS011;6730;46.248;6.930;2023-03-31T08:00:55;4.43;;;3.63;;
13321;SDS011;6730;46.248;6.930;2023-03-31T08:03:20;4.88;;;4.20;;
13321;SDS011;6730;46.248;6.930;2023-03-31T08:05:46;4.45;;;3.72;;
13321;SDS011;6730;46.248;6.930;2023-03-31T08:08:14;5.03;;;4.15;;
13321;SDS011;6730;46.248;6.930;2023-03-31T08:10:40;5.38;;;3.65;;
13321;SDS011;6730;46.248;6.930;2023-03-31T08:13:06;5.72;;;3.83;;
13321;SDS011;6730;46.248;6.930;2023-03-31T08:15:31;4.50;;;3.88;;
13321;SDS011;6730;46.248;6.930;2023-03-31T08:17:57;5.35;;;3.83;;
13321;SDS011;6730;46.248;6.930;2023-03-31T08:20:23;5.40;;;3.75;;
13321;SDS011;6730;46.248;6.930;2023-03-31T08:22:48;6.30;;;3.97;;
13321;SDS011;6730;46.248;6.930;2023-03-31T08:25:14;4.90;;;4.28;;
13321;SDS011;6730;46.248;6.930;2023-03-31T08:27:40;4.57;;;3.42;;
13321;SDS011;6730;46.248;6.930;2023-03-31T08:30:07;5.10;;;3.80;;
13321;SDS011;6730;46.248;6.930;2023-03-31T08:32:34;4.70;;;4.00;;
13321;SDS011;6730;46.248;6.930;2023-03-31T08:35:00;5.32;;;3.88;;
13321;SDS011;6730;46.248;6.930;2023-03-31T08:37:26;4.82;;;4.25;;
13321;SDS011;6730;46.248;6.930;2023-03-31T08:39:52;5.93;;;4.72;;
13321;SDS011;6730;46.248;6.930;2023-03-31T08:47:40;5.93;;;4.00;;
13321;SDS011;6730;46.248;6.930;2023-03-31T08:50:11;4.93;;;3.97;;
13321;SDS011;6730;46.248;6.930;2023-03-31T08:52:45;5.15;;;4.07;;
13321;SDS011;6730;46.248;6.930;2023-03-31T08:55:21;5.25;;;4.10;;
13321;SDS011;6730;46.248;6.930;2023-03-31T08:58:13;6.03;;;5.43;;
13321;SDS011;6730;46.248;6.930;2023-03-31T09:11:59;6.20;;;5.53;;
13321;SDS011;6730;46.248;6.930;2023-03-31T09:14:41;6.07;;;5.03;;
13321;SDS011;6730;46.248;6.930;2023-03-31T09:17:40;8.52;;;6.28;;
13321;SDS011;6730;46.248;6.930;2023-03-31T09:20:13;8.18;;;6.65;;
13321;SDS011;6730;46.248;6.930;2023-03-31T09:22:48;6.05;;;5.45;;
13321;SDS011;6730;46.248;6.930;2023-03-31T09:25:20;6.90;;;6.00;;
13321;SDS011;6730;46.248;6.930;2023-03-31T09:27:50;8.27;;;5.22;;
13321;SDS011;6730;46.248;6.930;2023-03-31T09:32:47;7.43;;;5.20;;
13321;SDS011;6730;46.248;6.930;2023-03-31T09:35:20;5.22;;;4.63;;
13321;SDS011;6730;46.248;6.930;2023-03-31T09:37:49;8.35;;;5.15;;
13321;SDS011;6730;46.248;6.930;2023-03-31T09:40:33;6.68;;;5.38;;
13321;SDS011;6730;46.248;6.930;2023-03-31T09:43:00;7.07;;;4.90;;
13321;SDS011;6730;46.248;6.930;2023-03-31T09:45:33;5.80;;;4.88;;
13321;SDS011;6730;46.248;6.930;2023-03-31T09:48:06;7.85;;;5.38;;
13321;SDS011;6730;46.248;6.930;2023-03-31T09:50:44;6.57;;;5.25;;
13321;SDS011;6730;46.248;6.930;2023-03-31T09:53:25;6.25;;;4.70;;
13321;SDS011;6730;46.248;6.930;2023-03-31T09:56:00;7.72;;;4.88;;
13321;SDS011;6730;46.248;6.930;2023-03-31T09:58:27;8.07;;;4.72;;
13321;SDS011;6730;46.248;6.930;2023-03-31T10:03:27;5.80;;;5.13;;
13321;SDS011;6730;46.248;6.930;2023-03-31T10:06:00;6.07;;;4.35;;
13321;SDS011;6730;46.248;6.930;2023-03-31T10:08:33;9.25;;;5.82;;
13321;SDS011;6730;46.248;6.930;2023-03-31T10:11:07;7.30;;;6.35;;
13321;SDS011;6730;46.248;6.930;2023-03-31T10:13:45;8.05;;;6.30;;
13321;SDS011;6730;46.248;6.930;2023-03-31T10:16:12;6.15;;;5.53;;
13321;SDS011;6730;46.248;6.930;2023-03-31T10:18:45;6.93;;;4.90;;
13321;SDS011;6730;46.248;6.930;2023-03-31T10:21:19;7.43;;;5.07;;
13321;SDS011;6730;46.248;6.930;2023-03-31T10:23:48;6.95;;;5.47;;
13321;SDS011;6730;46.248;6.930;2023-03-31T10:26:16;7.47;;;5.43;;
13321;SDS011;6730;46.248;6.930;2023-03-31T10:28:45;9.98;;;6.07;;
13321;SDS011;6730;46.248;6.930;2023-03-31T10:31:16;8.05;;;5.40;;
13321;SDS011;6730;46.248;6.930;2023-03-31T10:33:48;7.78;;;6.18;;
13321;SDS011;6730;46.248;6.930;2023-03-31T10:36:34;7.20;;;5.32;;
13321;SDS011;6730;46.248;6.930;2023-03-31T10:39:03;6.35;;;4.18;;
13321;SDS011;6730;46.248;6.930;2023-03-31T10:41:31;8.80;;;5.22;;
13321;SDS011;6730;46.248;6.930;2023-03-31T10:43:58;8.43;;;4.97;;
13321;SDS011;6730;46.248;6.930;2023-03-31T10:49:19;7.65;;;5.05;;
13321;SDS011;6730;46.248;6.930;2023-03-31T10:54:23;6.65;;;4.93;;
13321;SDS011;6730;46.248;6.930;2023-03-31T10:56:50;6.10;;;5.20;;
13321;SDS011;6730;46.248;6.930;2023-03-31T10:59:21;7.57;;;5.35;;
13321;SDS011;6730;46.248;6.930;2023-03-31T11:10:31;5.45;;;4.88;;
13321;SDS011;6730;46.248;6.930;2023-03-31T11:13:33;6.43;;;5.03;;
13321;SDS011;6730;46.248;6.930;2023-03-31T11:16:07;5.57;;;4.72;;
13321;SDS011;6730;46.248;6.930;2023-03-31T11:21:23;5.30;;;4.38;;
13321;SDS011;6730;46.248;6.930;2023-03-31T11:27:16;6.80;;;4.90;;
13321;SDS011;6730;46.248;6.930;2023-03-31T11:43:28;6.57;;;4.00;;
13321;SDS011;6730;46.248;6.930;2023-03-31T11:46:05;4.95;;;3.90;;
13321;SDS011;6730;46.248;6.930;2023-03-31T11:54:38;3.80;;;2.80;;
13321;SDS011;6730;46.248;6.930;2023-03-31T12:00:16;4.25;;;2.35;;
13321;SDS011;6730;46.248;6.930;2023-03-31T12:05:43;2.78;;;2.15;;
13321;SDS011;6730;46.248;6.930;2023-03-31T12:12:45;4.22;;;2.80;;
13321;SDS011;6730;46.248;6.930;2023-03-31T12:14:52;5.18;;;3.15;;
13321;SDS011;6730;46.248;6.930;2023-03-31T12:17:26;4.53;;;3.05;;
13321;SDS011;6730;46.248;6.930;2023-03-31T12:22:32;3.97;;;2.70;;
13321;SDS011;6730;46.248;6.930;2023-03-31T12:25:19;3.42;;;2.08;;
13321;SDS011;6730;46.248;6.930;2023-03-31T12:27:50;2.95;;;2.20;;
13321;SDS011;6730;46.248;6.930;2023-03-31T12:33:10;3.03;;;2.47;;
13321;SDS011;6730;46.248;6.930;2023-03-31T12:35:47;3.17;;;2.38;;
13321;SDS011;6730;46.248;6.930;2023-03-31T12:38:23;3.15;;;2.28;;
13321;SDS011;6730;46.248;6.930;2023-03-31T12:52:05;3.38;;;2.08;;
13321;SDS011;6730;46.248;6.930;2023-03-31T12:57:18;5.60;;;2.03;;
13321;SDS011;6730;46.248;6.930;2023-03-31T12:59:46;4.65;;;2.30;;
13321;SDS011;6730;46.248;6.930;2023-03-31T13:02:37;3.13;;;2.50;;
13321;SDS011;6730;46.248;6.930;2023-03-31T13:08:07;3.65;;;2.65;;
13321;SDS011;6730;46.248;6.930;2023-03-31T13:10:50;2.72;;;2.40;;
13321;SDS011;6730;46.248;6.930;2023-03-31T13:13:22;3.08;;;2.55;;
13321;SDS011;6730;46.248;6.930;2023-03-31T13:15:49;3.53;;;3.10;;
13321;SDS011;6730;46.248;6.930;2023-03-31T13:18:18;3.13;;;2.45;;
13321;SDS011;6730;46.248;6.930;2023-03-31T13:20:45;3.47;;;2.55;;
13321;SDS011;6730;46.248;6.930;2023-03-31T13:23:20;2.50;;;2.25;;
13321;SDS011;6730;46.248;6.930;2023-03-31T13:33:13;6.75;;;3.67;;
13321;SDS011;6730;46.248;6.930;2023-03-31T13:46:48;3.17;;;1.95;;
13321;SDS011;6730;46.248;6.930;2023-03-31T13:49:34;4.93;;;1.90;;
13321;SDS011;6730;46.248;6.930;2023-03-31T13:52:34;2.38;;;1.92;;
13321;SDS011;6730;46.248;6.930;2023-03-31T13:55:29;2.90;;;2.30;;
13321;SDS011;6730;46.248;6.930;2023-03-31T14:09:07;4.40;;;1.88;;
13321;SDS011;6730;46.248;6.930;2023-03-31T14:11:34;2.67;;;2.00;;
13321;SDS011;6730;46.248;6.930;2023-03-31T14:14:13;2.55;;;2.28;;
13321;SDS011;6730;46.248;6.930;2023-03-31T14:16:43;3.13;;;2.25;;
13321;SDS011;6730;46.248;6.930;2023-03-31T14:27:50;2.72;;;1.80;;
13321;SDS011;6730;46.248;6.930;2023-03-31T14:30:25;3.05;;;2.10;;
13321;SDS011;6730;46.248;6.930;2023-03-31T14:38:19;3.95;;;2.35;;
13321;SDS011;6730;46.248;6.930;2023-03-31T14:40:47;3.38;;;1.95;;
13321;SDS011;6730;46.248;6.930;2023-03-31T14:43:21;2.85;;;1.85;;
13321;SDS011;6730;46.248;6.930;2023-03-31T14:46:05;3.65;;;2.20;;
13321;SDS011;6730;46.248;6.930;2023-03-31T14:48:33;1.77;;;1.50;;
13321;SDS011;6730;46.248;6.930;2023-03-31T14:51:09;2.17;;;1.70;;
13321;SDS011;6730;46.248;6.930;2023-03-31T14:53:37;3.33;;;1.80;;
13321;SDS011;6730;46.248;6.930;2023-03-31T14:56:04;3.10;;;1.83;;
13321;SDS011;6730;46.248;6.930;2023-03-31T14:58:34;4.80;;;1.80;;
13321;SDS011;6730;46.248;6.930;2023-03-31T15:01:02;2.53;;;1.50;;
13321;SDS011;6730;46.248;6.930;2023-03-31T15:03:32;2.95;;;1.65;;
13321;SDS011;6730;46.248;6.930;2023-03-31T15:06:00;3.22;;;1.65;;
13321;SDS011;6730;46.248;6.930;2023-03-31T15:08:27;2.53;;;1.98;;
13321;SDS011;6730;46.248;6.930;2023-03-31T15:10:56;3.50;;;1.65;;
13321;SDS011;6730;46.248;6.930;2023-03-31T15:13:32;1.70;;;1.30;;
13321;SDS011;6730;46.248;6.930;2023-03-31T15:16:45;2.03;;;1.63;;
13321;SDS011;6730;46.248;6.930;2023-03-31T15:21:58;3.55;;;1.30;;
13321;SDS011;6730;46.248;6.930;2023-03-31T15:24:35;1.75;;;1.00;;
13321;SDS011;6730;46.248;6.930;2023-03-31T15:27:02;2.30;;;1.00;;
13321;SDS011;6730;46.248;6.930;2023-03-31T15:32:23;2.35;;;1.42;;
13321;SDS011;6730;46.248;6.930;2023-03-31T15:34:53;5.60;;;1.30;;
13321;SDS011;6730;46.248;6.930;2023-03-31T15:37:23;1.80;;;1.17;;
13321;SDS011;6730;46.248;6.930;2023-03-31T15:39:53;2.40;;;1.50;;
13321;SDS011;6730;46.248;6.930;2023-03-31T15:42:22;2.28;;;1.42;;
13321;SDS011;6730;46.248;6.930;2023-03-31T15:44:55;1.95;;;1.02;;
13321;SDS011;6730;46.248;6.930;2023-03-31T15:47:49;4.15;;;1.88;;
13321;SDS011;6730;46.248;6.930;2023-03-31T15:50:16;4.05;;;1.95;;
13321;SDS011;6730;46.248;6.930;2023-03-31T15:52:49;2.30;;;1.40;;
13321;SDS011;6730;46.248;6.930;2023-03-31T15:58:04;1.98;;;1.40;;
13321;SDS011;6730;46.248;6.930;2023-03-31T16:02:56;3.65;;;1.55;;
13321;SDS011;6730;46.248;6.930;2023-03-31T16:08:16;3.15;;;1.23;;
13321;SDS011;6730;46.248;6.930;2023-03-31T16:10:48;3.63;;;1.60;;
13321;SDS011;6730;46.248;6.930;2023-03-31T16:13:27;2.55;;;1.90;;
13321;SDS011;6730;46.248;6.930;2023-03-31T16:15:54;3.65;;;2.15;;
13321;SDS011;6730;46.248;6.930;2023-03-31T16:20:56;2.17;;;1.42;;
13321;SDS011;6730;46.248;6.930;2023-03-31T16:23:26;2.40;;;1.30;;
13321;SDS011;6730;46.248;6.930;2023-03-31T16:25:54;3.28;;;1.40;;
13321;SDS011;6730;46.248;6.930;2023-03-31T16:28:21;2.08;;;1.30;;
13321;SDS011;6730;46.248;6.930;2023-03-31T16:30:53;2.08;;;1.40;;
13321;SDS011;6730;46.248;6.930;2023-03-31T16:33:20;2.90;;;1.30;;
13321;SDS011;6730;46.248;6.930;2023-03-31T16:35:50;3.78;;;1.48;;
13321;SDS011;6730;46.248;6.930;2023-03-31T16:38:20;3.72;;;1.60;;
13321;SDS011;6730;46.248;6.930;2023-03-31T16:40:48;5.45;;;1.38;;
13321;SDS011;6730;46.248;6.930;2023-03-31T16:43:21;1.52;;;1.30;;
13321;SDS011;6730;46.248;6.930;2023-03-31T16:45:49;3.72;;;1.27;;
13321;SDS011;6730;46.248;6.930;2023-03-31T16:48:26;3.80;;;1.60;;
13321;SDS011;6730;46.248;6.930;2023-03-31T16:50:54;4.25;;;1.50;;
13321;SDS011;6730;46.248;6.930;2023-03-31T16:53:25;2.65;;;1.30;;
13321;SDS011;6730;46.248;6.930;2023-03-31T16:55:53;3.88;;;1.40;;
13321;SDS011;6730;46.248;6.930;2023-03-31T16:58:19;4.00;;;1.45;;
13321;SDS011;6730;46.248;6.930;2023-03-31T17:00:47;2.65;;;1.50;;
13321;SDS011;6730;46.248;6.930;2023-03-31T17:03:14;1.45;;;1.30;;
13321;SDS011;6730;46.248;6.930;2023-03-31T17:05:45;1.85;;;1.40;;
13321;SDS011;6730;46.248;6.930;2023-03-31T17:08:19;1.55;;;1.42;;
13321;SDS011;6730;46.248;6.930;2023-03-31T17:10:52;4.18;;;1.35;;
13321;SDS011;6730;46.248;6.930;2023-03-31T17:13:20;1.08;;;0.90;;
13321;SDS011;6730;46.248;6.930;2023-03-31T17:15:46;1.50;;;1.17;;
13321;SDS011;6730;46.248;6.930;2023-03-31T17:18:12;52.60;;;5.15;;
13321;SDS011;6730;46.248;6.930;2023-03-31T17:20:39;272.88;;;16.85;;
13321;SDS011;6730;46.248;6.930;2023-03-31T17:23:05;220.20;;;14.27;;
13321;SDS011;6730;46.248;6.930;2023-03-31T17:25:31;18.75;;;3.30;;
13321;SDS011;6730;46.248;6.930;2023-03-31T17:27:58;2.13;;;1.88;;
13321;SDS011;6730;46.248;6.930;2023-03-31T17:30:25;2.22;;;1.58;;
13321;SDS011;6730;46.248;6.930;2023-03-31T17:32:52;2.63;;;1.63;;
13321;SDS011;6730;46.248;6.930;2023-03-31T17:35:18;3.38;;;1.80;;
13321;SDS011;6730;46.248;6.930;2023-03-31T17:37:47;3.72;;;1.20;;
13321;SDS011;6730;46.248;6.930;2023-03-31T17:40:18;2.15;;;1.40;;
13321;SDS011;6730;46.248;6.930;2023-03-31T17:42:44;2.08;;;1.50;;
13321;SDS011;6730;46.248;6.930;2023-03-31T17:45:11;4.70;;;1.50;;
13321;SDS011;6730;46.248;6.930;2023-03-31T17:47:38;2.65;;;2.20;;
13321;SDS011;6730;46.248;6.930;2023-03-31T17:50:05;2.28;;;1.98;;
13321;SDS011;6730;46.248;6.930;2023-03-31T17:52:32;4.22;;;1.95;;
13321;SDS011;6730;46.248;6.930;2023-03-31T17:54:59;1.90;;;1.60;;
13321;SDS011;6730;46.248;6.930;2023-03-31T17:57:26;2.38;;;1.60;;
13321;SDS011;6730;46.248;6.930;2023-03-31T17:59:52;1.90;;;1.00;;
13321;SDS011;6730;46.248;6.930;2023-03-31T18:02:18;1.45;;;0.88;;
13321;SDS011;6730;46.248;6.930;2023-03-31T18:04:44;2.00;;;1.05;;
13321;SDS011;6730;46.248;6.930;2023-03-31T18:07:10;1.35;;;0.98;;
13321;SDS011;6730;46.248;6.930;2023-03-31T18:09:36;1.17;;;0.80;;
13321;SDS011;6730;46.248;6.930;2023-03-31T18:12:03;5.85;;;2.97;;
13321;SDS011;6730;46.248;6.930;2023-03-31T18:14:29;1.98;;;1.38;;
13321;SDS011;6730;46.248;6.930;2023-03-31T18:16:55;3.17;;;1.33;;
13321;SDS011;6730;46.248;6.930;2023-03-31T18:19:22;1.15;;;0.80;;
13321;SDS011;6730;46.248;6.930;2023-03-31T18:21:48;1.67;;;1.10;;
13321;SDS011;6730;46.248;6.930;2023-03-31T18:24:14;0.80;;;0.80;;
13321;SDS011;6730;46.248;6.930;2023-03-31T18:26:40;0.90;;;0.70;;
13321;SDS011;6730;46.248;6.930;2023-03-31T18:29:06;1.15;;;0.80;;
13321;SDS011;6730;46.248;6.930;2023-03-31T18:31:32;0.73;;;0.45;;
13321;SDS011;6730;46.248;6.930;2023-03-31T18:33:58;1.45;;;0.28;;